Airfield :
LOGIN :

Register | Disclaimer

   EN    FR    IT 

 










Legend :    VFR   Marginal VFR   IFR   Intensive IFR   Very Intensive IFR
Visi :
Ceiling :
>= 8 km
>= 3000ft
5 to 8 km
1000 to 3000 ft
1500m to 5 km
500 to 1000 ft
800 to 1500m
200 to 500 ft
< 800m
< 200 ft
Symbols :   Thunderstorms  Fog  Heavy snow  Heavy precipitations  Wind > 20 kt
SIGMETs :     Misc.  Thunderstorms  Icing  Turbulence  Mountain Waves  Volcanic Ashes







- Airport Elevation : 53 ft
- IATA code : HAM


EDDH - Hamburg

CURRENT METAR :
  • 231120Z 29016KT 9999 SCT020 BKN041 15/09 Q1021 TEMPO 30020G30KT

EXPIRED METARs :
  • 231050Z 31015KT 9999 -SHRA SCT022TCU BKN035 14/09 Q1021 TEMPO 30020G30KT
  • 231020Z 30016KT 9999 VCSH FEW015 FEW023TCU BKN030 14/09 Q1021 TEMPO 30020G30KT
  • 230950Z 30020KT 9999 -SHRA FEW015 SCT023TCU BKN028 14/08 Q1020 TEMPO 30015G25KT
  • 230920Z 31018KT 9999 -SHRA FEW015 SCT023TCU BKN035 14/08 Q1020 TEMPO 30015G25KT
  • 230850Z 29014G25KT 260V330 9999 -SHRA FEW015 SCT020TCU BKN045 15/09 Q1020 NOSIG

TAF TAF EDDH
Valid from the 23 at 12:00 until the 24 at 18:00 UTC


231100Z 2312/2418 29015KT 9999 SCT025
TEMPO 2312/2317 31020G30KT
BECMG 2315/2318 BKN012
BECMG 2317/2319 28008KT
TEMPO 2321/2408 4000 -DZ BKN008
BECMG 2409/2412 BKN015
No reported NOTAMs for that airfield.



MET'MAP, your aeronautical weather chart ! - Copyright ORBIFLY December 2007 - Disclaimer

ORBIFLY MET'MAP TEAM :

Programming & Development : Alexandra Zaïnal
Concept & Development : Baudouin d'Aumeries
Co-Development & Prog : Marc-Olivier Méhu
Technical & hardware support : Manuel Goepfert

Contact : metmap@orbifly.com




SOURCES & CREDITS :

   NOAA